L'gov, Russia
Current Conditions -  °F | °C
As of 6:00 AM on Saturday 20 Dec 2014 (Local Time) from UUOK Reporting Station
Haze Haze  
Wind Chill: -2°   Ceiling: 400
Heat Index:   Visibility: 2.5mi
Dew Point:   Wind: 11mph
Humidity: 100%   Direction: 180°S
Pressure: 29.71"   Gusts: NA
Location:  51.65°N, 35.28°E
Report Text: UUOK 200300Z 18005MPS 4000 BR OVC004 02/02 Q1006 NOSIG
Loading
Personal Weather Stations






























Interactive Weather Map New forecast layout! Learn more

10-Day Weather Forecast

Advertisements
Track Severe Weather on mobile